createdAt,value
2023-05-20T00:00:02.085Z,102440
2023-05-20T00:05:00.685Z,102440
2023-05-20T00:10:00.526Z,102440
2023-05-20T00:15:00.961Z,102440
2023-05-20T00:20:00.502Z,102440
2023-05-20T00:25:00.542Z,102440
2023-05-20T00:30:00.717Z,102450
2023-05-20T00:35:01.884Z,102440
2023-05-20T00:40:00.498Z,102440
2023-05-20T00:45:00.554Z,102440
2023-05-20T00:50:00.924Z,102430
2023-05-20T00:55:00.624Z,102430
2023-05-20T01:00:02.671Z,102420
2023-05-20T01:05:00.526Z,102420
2023-05-20T01:10:01.112Z,102420
2023-05-20T01:15:06.103Z,102420
2023-05-20T01:20:00.831Z,102420
2023-05-20T01:25:00.466Z,102420
2023-05-20T01:30:00.655Z,102420
2023-05-20T01:35:00.737Z,102410
2023-05-20T01:40:02.635Z,102410
2023-05-20T01:45:00.900Z,102410
2023-05-20T01:50:00.522Z,102410
2023-05-20T01:55:00.494Z,102400
2023-05-20T02:00:02.517Z,102390
2023-05-20T02:05:00.526Z,102390
2023-05-20T02:10:00.507Z,102400
2023-05-20T02:15:00.556Z,102400
2023-05-20T02:20:00.534Z,102390
2023-05-20T02:25:00.543Z,102400
2023-05-20T02:30:00.722Z,102390
2023-05-20T02:35:00.500Z,102390
2023-05-20T02:40:00.645Z,102380
2023-05-20T02:45:00.532Z,102380
2023-05-20T02:50:00.485Z,102370
2023-05-20T02:55:00.724Z,102380
2023-05-20T03:00:02.039Z,102370
2023-05-20T03:05:00.489Z,102370
2023-05-20T03:10:00.651Z,102370
2023-05-20T03:15:00.532Z,102370
2023-05-20T03:20:00.592Z,102370
2023-05-20T03:25:00.518Z,102380
2023-05-20T03:30:00.472Z,102380
2023-05-20T03:35:00.461Z,102380
2023-05-20T03:40:00.518Z,102380
2023-05-20T03:45:00.609Z,102380
2023-05-20T03:50:00.496Z,102370
2023-05-20T03:55:00.520Z,102370
2023-05-20T04:00:01.066Z,102370
2023-05-20T04:05:00.472Z,102370
2023-05-20T04:10:00.728Z,102370
2023-05-20T04:15:00.463Z,102370
2023-05-20T04:20:00.501Z,102380
2023-05-20T04:25:00.518Z,102380
2023-05-20T04:30:00.468Z,102380
2023-05-20T04:35:00.498Z,102380
2023-05-20T04:40:00.519Z,102390
2023-05-20T04:45:00.539Z,102380
2023-05-20T04:50:00.535Z,102390
2023-05-20T04:55:00.539Z,102390
2023-05-20T05:00:01.132Z,102380
2023-05-20T05:05:00.735Z,102380
2023-05-20T05:10:00.521Z,102380
2023-05-20T05:15:00.494Z,102380
2023-05-20T05:20:00.546Z,102370
2023-05-20T05:25:00.540Z,102370
2023-05-20T05:30:01.215Z,102370
2023-05-20T05:35:00.535Z,102370
2023-05-20T05:40:00.540Z,102370
2023-05-20T05:45:00.492Z,102370
2023-05-20T05:50:00.621Z,102360
2023-05-20T05:55:00.856Z,102360
2023-05-20T06:00:01.163Z,102360
2023-05-20T06:05:01.710Z,102360
2023-05-20T06:10:00.551Z,102370
2023-05-20T06:15:00.561Z,102360
2023-05-20T06:20:00.547Z,102370
2023-05-20T06:25:00.646Z,102370
2023-05-20T06:30:00.587Z,102360
2023-05-20T06:35:00.620Z,102370
2023-05-20T06:40:00.511Z,102360
2023-05-20T06:45:00.482Z,102350
2023-05-20T06:50:00.549Z,102350
2023-05-20T06:55:00.606Z,102340
2023-05-20T07:00:02.369Z,102340
2023-05-20T07:05:00.471Z,102350
2023-05-20T07:10:00.592Z,102340
2023-05-20T07:15:01.077Z,102330
2023-05-20T07:20:00.755Z,102330
2023-05-20T07:25:00.528Z,102330
2023-05-20T07:30:00.663Z,102330
2023-05-20T07:35:00.473Z,102320
2023-05-20T07:40:00.561Z,102310
2023-05-20T07:45:00.592Z,102310
2023-05-20T07:50:00.536Z,102310
2023-05-20T07:55:00.507Z,102300
2023-05-20T08:00:01.106Z,102290
2023-05-20T08:05:00.471Z,102300
2023-05-20T08:10:00.530Z,102290
2023-05-20T08:15:00.533Z,102300
2023-05-20T08:20:00.644Z,102300
2023-05-20T08:25:00.602Z,102290
2023-05-20T08:30:01.061Z,102280
2023-05-20T08:35:00.515Z,102290
2023-05-20T08:40:00.546Z,102270
2023-05-20T08:45:01.764Z,102270
2023-05-20T08:50:00.916Z,102270
2023-05-20T08:55:01.666Z,102260
2023-05-20T09:00:02.039Z,102260
2023-05-20T09:05:00.518Z,102260
2023-05-20T09:10:00.525Z,102260
2023-05-20T09:15:00.598Z,102260
2023-05-20T09:20:00.547Z,102260
2023-05-20T09:25:01.142Z,102240
2023-05-20T09:30:00.463Z,102250
2023-05-20T09:35:00.635Z,102250
2023-05-20T09:40:03.620Z,102230
2023-05-20T09:45:01.088Z,102230
2023-05-20T09:50:00.519Z,102230
2023-05-20T09:55:02.158Z,102230
2023-05-20T10:00:04.234Z,102230
2023-05-20T10:05:05.458Z,102230
2023-05-20T10:10:01.479Z,102230
2023-05-20T10:15:09.534Z,102220
2023-05-20T10:20:00.692Z,102210
2023-05-20T10:25:06.000Z,102210
2023-05-20T10:30:00.520Z,102200
2023-05-20T10:35:03.830Z,102200
2023-05-20T10:40:10.013Z,102200
2023-05-20T10:45:01.977Z,102200
2023-05-20T10:50:00.825Z,102180
2023-05-20T10:55:00.824Z,102180
2023-05-20T11:00:03.080Z,102180
2023-05-20T11:05:01.075Z,102170
2023-05-20T11:10:00.571Z,102170
2023-05-20T11:15:00.548Z,102170
2023-05-20T11:20:00.535Z,102160
2023-05-20T11:25:03.893Z,102160
2023-05-20T11:30:01.129Z,102160
2023-05-20T11:35:00.506Z,102150
2023-05-20T11:40:03.688Z,102140
2023-05-20T11:45:01.321Z,102140
2023-05-20T11:50:00.502Z,102130
2023-05-20T11:55:00.491Z,102130
2023-05-20T12:00:02.179Z,102130
2023-05-20T12:05:00.670Z,102120
2023-05-20T12:10:00.579Z,102110
2023-05-20T12:15:00.486Z,102120
2023-05-20T12:20:00.524Z,102110
2023-05-20T12:25:00.624Z,102110
2023-05-20T12:30:00.531Z,102120
2023-05-20T12:35:00.494Z,102110
2023-05-20T12:40:00.772Z,102110
2023-05-20T12:45:00.528Z,102110
2023-05-20T12:50:01.902Z,102110
2023-05-20T12:55:00.524Z,102100
2023-05-20T13:00:00.877Z,102100
2023-05-20T13:05:00.505Z,102100
2023-05-20T13:10:00.802Z,102090
2023-05-20T13:15:00.612Z,102080
2023-05-20T13:20:00.494Z,102100
2023-05-20T13:25:00.484Z,102090
2023-05-20T13:30:00.705Z,102090
2023-05-20T13:35:00.628Z,102090
2023-05-20T13:40:00.571Z,102080
2023-05-20T13:45:00.476Z,102070
2023-05-20T13:50:02.859Z,102060
2023-05-20T13:55:00.496Z,102050
2023-05-20T14:00:01.203Z,102050
2023-05-20T14:05:01.150Z,102040
2023-05-20T14:10:00.512Z,102040
2023-05-20T14:15:00.470Z,102030
2023-05-20T14:20:00.527Z,102020
2023-05-20T14:25:00.533Z,102020
2023-05-20T14:30:00.493Z,102020
2023-05-20T14:35:00.583Z,102020
2023-05-20T14:40:00.693Z,102010
2023-05-20T14:45:00.508Z,102010
2023-05-20T14:50:00.562Z,102000
2023-05-20T14:55:00.510Z,102000
2023-05-20T15:00:00.969Z,101990
2023-05-20T15:05:00.576Z,101980
2023-05-20T15:10:00.542Z,101990
2023-05-20T15:15:00.481Z,101980
2023-05-20T15:20:00.580Z,101980
2023-05-20T15:25:00.528Z,101970
2023-05-20T15:30:00.578Z,101960
2023-05-20T15:35:02.648Z,101960
2023-05-20T15:40:00.600Z,101950
2023-05-20T15:45:00.511Z,101970
2023-05-20T15:50:00.538Z,101960
2023-05-20T15:55:00.530Z,101950
2023-05-20T16:00:01.422Z,101940
2023-05-20T16:05:00.611Z,101930
2023-05-20T16:10:00.543Z,101930
2023-05-20T16:15:00.912Z,101930
2023-05-20T16:20:00.741Z,101920
2023-05-20T16:25:01.716Z,101930
2023-05-20T16:30:00.667Z,101930
2023-05-20T16:35:00.625Z,101920
2023-05-20T16:40:00.574Z,101930
2023-05-20T16:45:00.603Z,101930
2023-05-20T16:50:00.507Z,101930
2023-05-20T16:55:00.484Z,101930
2023-05-20T17:00:02.579Z,101930
2023-05-20T17:05:00.594Z,101930
2023-05-20T17:10:00.559Z,101930
2023-05-20T17:15:00.636Z,101930
2023-05-20T17:20:00.622Z,101930
2023-05-20T17:25:00.644Z,101940
2023-05-20T17:30:00.479Z,101940
2023-05-20T17:35:00.510Z,101950
2023-05-20T17:40:00.604Z,101950
2023-05-20T17:45:00.465Z,101950
2023-05-20T17:50:00.557Z,101950
2023-05-20T17:55:00.676Z,101960
2023-05-20T18:00:01.299Z,101970
2023-05-20T18:05:00.556Z,101970
2023-05-20T18:10:00.592Z,101980
2023-05-20T18:15:01.038Z,101990
2023-05-20T18:20:00.551Z,101980
2023-05-20T18:25:00.666Z,101990
2023-05-20T18:30:00.567Z,101990
2023-05-20T18:35:00.998Z,101990
2023-05-20T18:40:00.709Z,101980
2023-05-20T18:45:00.559Z,101980
2023-05-20T18:50:00.559Z,101970
2023-05-20T18:55:00.713Z,101960
2023-05-20T19:00:01.336Z,101970
2023-05-20T19:05:00.574Z,101970
2023-05-20T19:10:01.270Z,101970
2023-05-20T19:15:00.574Z,101980
2023-05-20T19:20:00.605Z,101980
2023-05-20T19:25:00.537Z,101990
2023-05-20T19:30:00.540Z,101990
2023-05-20T19:35:00.528Z,102000
2023-05-20T19:40:00.589Z,102000
2023-05-20T19:45:00.544Z,102000
2023-05-20T19:50:00.566Z,102010
2023-05-20T19:55:00.662Z,102010
2023-05-20T20:00:01.102Z,102010
2023-05-20T20:05:00.650Z,102000
2023-05-20T20:10:00.565Z,102010
2023-05-20T20:15:00.580Z,102010
2023-05-20T20:20:00.600Z,101990
2023-05-20T20:25:00.546Z,101990
2023-05-20T20:30:00.537Z,102000
2023-05-20T20:35:00.555Z,102000
2023-05-20T20:40:00.573Z,102000
2023-05-20T20:45:00.525Z,102000
2023-05-20T20:50:00.548Z,102000
2023-05-20T20:55:00.783Z,102000
2023-05-20T21:00:05.061Z,101990
2023-05-20T21:05:00.462Z,101990
2023-05-20T21:10:00.514Z,102000
2023-05-20T21:15:00.512Z,102000
2023-05-20T21:20:00.564Z,101990
2023-05-20T21:25:00.481Z,101990
2023-05-20T21:30:00.504Z,101990
2023-05-20T21:35:00.506Z,101970
2023-05-20T21:40:00.591Z,101970
2023-05-20T21:45:00.494Z,101960
2023-05-20T21:50:00.908Z,101960
2023-05-20T21:55:00.569Z,101960
2023-05-20T22:00:02.659Z,101950
2023-05-20T22:05:00.643Z,101940
2023-05-20T22:10:00.500Z,101940
2023-05-20T22:15:00.803Z,101930
2023-05-20T22:20:00.698Z,101940
2023-05-20T22:25:01.726Z,101940
2023-05-20T22:30:00.582Z,101930
2023-05-20T22:35:00.483Z,101930
2023-05-20T22:40:00.497Z,101930
2023-05-20T22:45:00.467Z,101920
2023-05-20T22:50:00.598Z,101920
2023-05-20T22:55:00.490Z,101920
2023-05-20T23:00:01.282Z,101930
2023-05-20T23:05:00.498Z,101920
2023-05-20T23:10:00.500Z,101910
2023-05-20T23:15:00.476Z,101910
2023-05-20T23:20:00.969Z,101900
2023-05-20T23:25:00.491Z,101900
2023-05-20T23:30:00.541Z,101900
2023-05-20T23:35:00.472Z,101890
2023-05-20T23:40:00.491Z,101890
2023-05-20T23:45:00.511Z,101880
2023-05-20T23:50:00.771Z,101880
2023-05-20T23:55:00.495Z,101890
